Time;durP1;ratioP1;P1;durP2;ratioP2;P2;SDS_P1;SDS_P2;PMS_P1;PMS_P2;Temp;Humidity;BMP_temperature;BMP_pressure;BME280_temperature;BME280_humidity;BME280_pressure;Samples;Min_cycle;Max_cycle;Signal;HPM_P1;HPM_P2
2023/09/16 00:01:08;;;;;;;32.05;16.10;;;;;;;;;;4997083;28;20602;-76
2023/09/16 00:03:35;;;;;;;25.75;16.65;;;;;;;;;;5001017;28;20034;-76
2023/09/16 00:06:00;;;;;;;44.35;22.17;;;;;;;;;;4995310;28;20127;-76
2023/09/16 00:08:26;;;;;;;58.92;26.33;;;;;;;;;;5002034;28;20494;-76
2023/09/16 00:10:51;;;;;;;53.90;26.42;;;;;;;;;;4996634;28;20038;-76
2023/09/16 00:13:16;;;;;;;66.90;29.65;;;;;;;;;;5000201;28;20518;-76
2023/09/16 00:15:45;;;;;;;75.95;29.95;;;;;;;;;;4995624;28;20042;-76
2023/09/16 00:18:11;;;;;;;86.68;31.23;;;;;;;;;;5001802;28;20022;-76
2023/09/16 00:20:36;;;;;;;71.13;30.23;;;;;;;;;;4999728;28;20450;-76
2023/09/16 00:23:04;;;;;;;81.10;30.80;;;;;;;;;;4999774;28;20040;-76
2023/09/16 00:25:30;;;;;;;78.75;29.75;;;;;;;;;;4999280;28;20030;-76
2023/09/16 00:27:55;;;;;;;69.32;25.27;;;;;;;;;;4999676;28;20081;-76
2023/09/16 00:30:21;;;;;;;70.30;28.55;;;;;;;;;;4998705;28;20022;-76
2023/09/16 00:32:46;;;;;;;65.72;26.50;;;;;;;;;;4998404;28;20030;-76
2023/09/16 00:35:11;;;;;;;64.28;25.27;;;;;;;;;;4996640;28;20042;-76
2023/09/16 00:37:37;;;;;;;55.83;24.42;;;;;;;;;;4999450;28;20092;-76
2023/09/16 00:40:05;;;;;;;50.88;24.10;;;;;;;;;;4998526;28;20044;-76
2023/09/16 00:42:31;;;;;;;52.28;21.88;;;;;;;;;;4999630;28;20485;-76
2023/09/16 00:44:56;;;;;;;47.92;23.25;;;;;;;;;;5002893;28;20132;-75
2023/09/16 00:47:21;;;;;;;66.63;24.10;;;;;;;;;;5000537;28;20959;-76
2023/09/16 00:49:47;;;;;;;84.80;24.55;;;;;;;;;;5001026;28;20037;-76
2023/09/16 00:52:13;;;;;;;69.07;25.23;;;;;;;;;;5002356;28;20026;-76
2023/09/16 00:54:38;;;;;;;194.98;29.55;;;;;;;;;;4998022;28;20125;-76
2023/09/16 00:57:08;;;;;;;59.00;22.00;;;;;;;;;;4994565;28;20014;-76
2023/09/16 00:59:34;;;;;;;93.00;21.63;;;;;;;;;;5001578;28;20048;-75
2023/09/16 01:01:59;;;;;;;355.80;23.80;;;;;;;;;;5001032;28;20077;-76
2023/09/16 01:04:26;;;;;;;247.68;24.50;;;;;;;;;;4998768;28;20030;-76
2023/09/16 01:06:51;;;;;;;191.25;21.35;;;;;;;;;;5002266;28;20410;-76
2023/09/16 01:09:20;;;;;;;36.03;17.10;;;;;;;;;;4997857;28;20049;-76
2023/09/16 01:11:45;;;;;;;41.75;18.48;;;;;;;;;;4998109;28;20084;-75
2023/09/16 01:14:11;;;;;;;202.82;19.70;;;;;;;;;;5002581;28;20038;-76
2023/09/16 01:16:46;;;;;;;164.13;18.50;;;;;;;;;;5000419;28;20097;-75
2023/09/16 01:19:19;;;;;;;63.72;17.27;;;;;;;;;;5005233;28;20096;-76
2023/09/16 01:21:44;;;;;;;131.73;17.92;;;;;;;;;;5003002;28;20053;-75
2023/09/16 01:24:17;;;;;;;343.30;26.08;;;;;;;;;;5003185;28;21090;-76
2023/09/16 01:26:43;;;;;;;137.23;18.30;;;;;;;;;;5005877;28;21260;-75
2023/09/16 01:29:09;;;;;;;257.60;23.52;;;;;;;;;;5002474;28;20121;-76
2023/09/16 01:31:34;;;;;;;110.95;19.25;;;;;;;;;;5005417;28;20049;-76
2023/09/16 01:34:04;;;;;;;236.57;22.00;;;;;;;;;;5003936;28;20056;-75
2023/09/16 01:36:31;;;;;;;104.15;16.35;;;;;;;;;;4998573;28;20042;-76
2023/09/16 01:39:03;;;;;;;174.85;20.52;;;;;;;;;;5005579;28;20046;-75
2023/09/16 01:41:29;;;;;;;177.68;19.83;;;;;;;;;;4983818;28;20031;-75
2023/09/16 01:43:55;;;;;;;139.65;18.80;;;;;;;;;;4999754;28;20382;-76
2023/09/16 01:46:20;;;;;;;59.05;16.70;;;;;;;;;;5001397;28;20069;-76
2023/09/16 01:48:45;;;;;;;105.00;16.33;;;;;;;;;;5001585;28;20058;-76
2023/09/16 01:51:13;;;;;;;134.10;17.17;;;;;;;;;;5006866;28;20030;-76
2023/09/16 01:53:39;;;;;;;34.95;14.27;;;;;;;;;;5004709;28;20058;-76
2023/09/16 01:56:04;;;;;;;93.68;14.48;;;;;;;;;;5004341;28;20034;-76
2023/09/16 01:58:31;;;;;;;115.88;15.43;;;;;;;;;;4999610;28;20359;-76
2023/09/16 02:00:56;;;;;;;119.65;16.52;;;;;;;;;;5000331;28;20050;-76
2023/09/16 02:03:21;;;;;;;39.58;14.43;;;;;;;;;;5002607;28;20534;-76
2023/09/16 02:05:47;;;;;;;26.20;14.77;;;;;;;;;;5004767;28;20117;-76
2023/09/16 02:08:12;;;;;;;30.38;14.82;;;;;;;;;;5001765;28;20046;-77
2023/09/16 02:10:37;;;;;;;46.15;16.63;;;;;;;;;;5003795;28;20121;-76
2023/09/16 02:13:03;;;;;;;35.35;17.38;;;;;;;;;;5002580;28;20041;-75
2023/09/16 02:17:55;;;;;;;44.85;17.92;;;;;;;;;;4976665;28;20599;-81
2023/09/16 02:20:21;;;;;;;59.22;17.00;;;;;;;;;;4979346;28;20062;-81
2023/09/16 02:22:46;;;;;;;562.78;43.97;;;;;;;;;;4963313;28;20039;-84
2023/09/16 02:25:12;;;;;;;150.48;18.83;;;;;;;;;;4966062;28;20063;-84
2023/09/16 02:27:37;;;;;;;59.22;15.88;;;;;;;;;;4975081;28;20035;-81
2023/09/16 02:30:03;;;;;;;271.17;20.42;;;;;;;;;;4970035;28;20061;-81
2023/09/16 02:32:29;;;;;;;67.57;17.70;;;;;;;;;;4966354;28;20504;-82
2023/09/16 02:34:55;;;;;;;174.73;20.52;;;;;;;;;;5040411;28;20028;-81
2023/09/16 02:37:20;;;;;;;251.27;23.08;;;;;;;;;;4970370;28;20115;-82
2023/09/16 02:39:46;;;;;;;375.80;28.40;;;;;;;;;;4973303;28;20131;-81
2023/09/16 02:42:11;;;;;;;286.42;27.70;;;;;;;;;;4967848;28;20178;-82
2023/09/16 02:44:36;;;;;;;183.23;24.33;;;;;;;;;;4970817;28;20249;-81
2023/09/16 02:47:01;;;;;;;195.73;27.52;;;;;;;;;;4968086;28;20063;-79
2023/09/16 02:49:29;;;;;;;89.82;16.70;;;;;;;;;;4969460;28;20044;-83
2023/09/16 02:51:54;;;;;;;120.15;17.27;;;;;;;;;;4964253;28;20085;-82
2023/09/16 02:54:20;;;;;;;353.52;28.05;;;;;;;;;;4964808;28;20090;-83
2023/09/16 02:56:45;;;;;;;117.20;18.95;;;;;;;;;;4966731;28;20476;-84
2023/09/16 02:59:10;;;;;;;135.27;18.95;;;;;;;;;;5033445;28;20088;-82
2023/09/16 03:01:36;;;;;;;265.05;24.58;;;;;;;;;;4973869;28;20033;-83
2023/09/16 03:04:04;;;;;;;42.60;17.17;;;;;;;;;;4972143;28;20045;-83
2023/09/16 03:06:29;;;;;;;416.58;37.97;;;;;;;;;;4971001;28;20078;-82
2023/09/16 03:08:54;;;;;;;72.55;15.70;;;;;;;;;;4969844;28;20368;-79
2023/09/16 03:11:20;;;;;;;178.60;18.17;;;;;;;;;;4971742;28;20046;-81
2023/09/16 03:13:45;;;;;;;281.25;27.42;;;;;;;;;;4964735;28;20043;-81
2023/09/16 03:16:13;;;;;;;244.75;17.63;;;;;;;;;;4961459;28;20035;-80
2023/09/16 03:18:38;;;;;;;154.82;17.27;;;;;;;;;;5050024;28;20039;-82
2023/09/16 03:21:03;;;;;;;56.40;16.65;;;;;;;;;;4967478;28;20029;-80
2023/09/16 03:23:29;;;;;;;36.90;17.38;;;;;;;;;;4967773;28;20043;-82
2023/09/16 03:25:54;;;;;;;39.13;18.83;;;;;;;;;;4959441;28;20495;-82
2023/09/16 03:28:19;;;;;;;42.67;18.25;;;;;;;;;;4965707;28;20091;-81
2023/09/16 03:30:44;;;;;;;39.38;17.98;;;;;;;;;;4964790;28;20035;-83
2023/09/16 03:33:10;;;;;;;45.70;18.08;;;;;;;;;;5029931;28;20039;-81
2023/09/16 03:35:36;;;;;;;39.10;18.83;;;;;;;;;;4968983;28;20027;-83
2023/09/16 03:38:01;;;;;;;37.40;18.63;;;;;;;;;;4966516;28;20118;-83
2023/09/16 03:40:27;;;;;;;41.47;18.02;;;;;;;;;;4953428;28;20103;-83
2023/09/16 03:42:54;;;;;;;33.75;16.67;;;;;;;;;;4951991;28;20035;-82
2023/09/16 03:45:19;;;;;;;40.92;17.33;;;;;;;;;;4959735;28;20053;-79
2023/09/16 03:47:44;;;;;;;34.33;16.38;;;;;;;;;;4963761;28;20220;-83
2023/09/16 03:50:10;;;;;;;33.22;15.95;;;;;;;;;;4961948;28;20549;-80
2023/09/16 03:52:36;;;;;;;35.00;16.65;;;;;;;;;;4965927;28;20329;-81
2023/09/16 03:55:02;;;;;;;34.70;16.58;;;;;;;;;;5039296;28;20042;-83
2023/09/16 03:57:28;;;;;;;36.42;16.30;;;;;;;;;;4970398;28;20043;-80
2023/09/16 03:59:53;;;;;;;33.50;16.13;;;;;;;;;;4965513;28;20037;-82
2023/09/16 04:02:19;;;;;;;37.22;16.80;;;;;;;;;;4966122;28;20043;-82
2023/09/16 04:04:44;;;;;;;34.63;16.33;;;;;;;;;;4962135;28;20042;-80
2023/09/16 04:07:09;;;;;;;29.85;14.73;;;;;;;;;;5042214;28;20035;-81
2023/09/16 04:09:35;;;;;;;32.72;13.60;;;;;;;;;;4982856;28;20042;-81
2023/09/16 04:12:00;;;;;;;34.08;15.70;;;;;;;;;;4974130;28;20104;-81
2023/09/16 04:14:25;;;;;;;27.67;14.73;;;;;;;;;;4967251;28;20043;-81
2023/09/16 04:16:51;;;;;;;32.13;15.00;;;;;;;;;;4964539;28;20040;-82
2023/09/16 04:19:17;;;;;;;26.80;14.70;;;;;;;;;;4965838;28;20067;-82
2023/09/16 04:21:42;;;;;;;25.88;14.45;;;;;;;;;;4972370;28;20122;-82
2023/09/16 04:24:07;;;;;;;26.13;13.93;;;;;;;;;;4965625;28;20049;-84
2023/09/16 04:26:33;;;;;;;27.27;14.75;;;;;;;;;;4967375;28;20046;-82
2023/09/16 04:28:58;;;;;;;37.65;15.25;;;;;;;;;;4974895;28;20060;-82
2023/09/16 04:31:24;;;;;;;24.85;14.52;;;;;;;;;;5030624;28;20364;-81
2023/09/16 04:33:49;;;;;;;28.70;14.57;;;;;;;;;;5045564;28;20042;-82
2023/09/16 04:36:14;;;;;;;28.48;14.70;;;;;;;;;;4964954;28;20451;-81
2023/09/16 04:38:39;;;;;;;30.83;13.55;;;;;;;;;;4963903;28;20082;-82
2023/09/16 04:41:05;;;;;;;25.70;13.23;;;;;;;;;;4975297;28;20043;-83
2023/09/16 04:43:30;;;;;;;21.10;12.40;;;;;;;;;;4979633;28;20542;-82
2023/09/16 04:45:56;;;;;;;23.10;12.50;;;;;;;;;;4960193;28;20055;-82
2023/09/16 04:48:22;;;;;;;21.15;12.60;;;;;;;;;;4955100;28;20042;-81
2023/09/16 04:50:48;;;;;;;24.58;12.65;;;;;;;;;;4973168;28;20051;-82
2023/09/16 04:53:13;;;;;;;20.08;11.68;;;;;;;;;;4981209;28;20035;-83
2023/09/16 04:55:41;;;;;;;22.20;10.60;;;;;;;;;;5045690;28;20033;-82
2023/09/16 04:58:06;;;;;;;21.80;11.68;;;;;;;;;;5030022;28;20100;-82
2023/09/16 05:00:35;;;;;;;16.77;10.88;;;;;;;;;;4966845;28;20042;-83
2023/09/16 05:03:00;;;;;;;18.60;11.40;;;;;;;;;;4992296;28;20019;-82
2023/09/16 05:05:25;;;;;;;22.02;12.40;;;;;;;;;;4972638;28;20030;-82
2023/09/16 05:07:51;;;;;;;20.80;11.88;;;;;;;;;;5064736;28;20599;-81
2023/09/16 05:10:16;;;;;;;23.42;12.93;;;;;;;;;;4976116;28;20045;-82
2023/09/16 05:12:41;;;;;;;22.73;12.40;;;;;;;;;;4993244;28;20043;-83
2023/09/16 05:15:08;;;;;;;21.08;11.80;;;;;;;;;;4988393;28;20163;-82
2023/09/16 05:17:33;;;;;;;19.13;11.82;;;;;;;;;;4990523;28;20027;-82
2023/09/16 05:19:58;;;;;;;18.10;12.32;;;;;;;;;;4981638;28;20103;-80
2023/09/16 05:22:24;;;;;;;22.00;12.02;;;;;;;;;;4987112;28;20045;-82
2023/09/16 05:24:49;;;;;;;18.70;11.85;;;;;;;;;;4989614;28;20049;-82
2023/09/16 05:27:14;;;;;;;19.10;11.40;;;;;;;;;;4972254;28;20031;-81
2023/09/16 05:29:39;;;;;;;17.00;11.10;;;;;;;;;;4987243;28;20055;-82
2023/09/16 05:32:05;;;;;;;16.50;11.23;;;;;;;;;;4968870;28;20035;-81
2023/09/16 05:34:30;;;;;;;13.32;9.50;;;;;;;;;;4992864;28;20049;-81
2023/09/16 05:36:56;;;;;;;9.98;8.18;;;;;;;;;;4970760;28;20111;-81
2023/09/16 05:39:21;;;;;;;11.13;8.38;;;;;;;;;;4986775;28;20509;-82
2023/09/16 05:41:48;;;;;;;10.32;7.38;;;;;;;;;;4992637;28;20019;-80
2023/09/16 05:44:14;;;;;;;8.68;6.95;;;;;;;;;;4987346;28;20066;-80
2023/09/16 05:46:39;;;;;;;7.97;6.78;;;;;;;;;;4986356;28;20271;-81
2023/09/16 05:49:08;;;;;;;9.43;6.40;;;;;;;;;;4968494;28;20035;-81
2023/09/16 05:51:34;;;;;;;6.18;5.57;;;;;;;;;;4984275;28;20069;-81
2023/09/16 05:53:59;;;;;;;8.18;6.35;;;;;;;;;;4969031;28;20022;-80
2023/09/16 05:56:24;;;;;;;6.00;5.40;;;;;;;;;;4993656;28;20044;-81
2023/09/16 05:58:50;;;;;;;8.18;7.32;;;;;;;;;;4986837;28;20405;-81
2023/09/16 06:01:15;;;;;;;9.40;5.63;;;;;;;;;;4992568;28;20057;-81
2023/09/16 06:03:40;;;;;;;7.72;6.20;;;;;;;;;;4988887;28;20046;-81
2023/09/16 06:06:06;;;;;;;7.13;6.40;;;;;;;;;;4986104;28;20033;-81
2023/09/16 06:08:31;;;;;;;6.03;5.18;;;;;;;;;;4997840;28;20118;-81
2023/09/16 06:10:56;;;;;;;8.90;5.95;;;;;;;;;;4994163;28;20098;-81
2023/09/16 06:13:22;;;;;;;6.70;5.22;;;;;;;;;;4989662;28;20046;-82
2023/09/16 06:15:48;;;;;;;7.47;5.28;;;;;;;;;;4994586;28;20057;-80
2023/09/16 06:18:13;;;;;;;7.18;5.55;;;;;;;;;;4987997;28;20045;-78
2023/09/16 06:20:39;;;;;;;8.48;5.40;;;;;;;;;;4995607;28;20072;-80
2023/09/16 06:23:10;;;;;;;5.82;5.03;;;;;;;;;;4989986;28;20509;-80
2023/09/16 06:25:36;;;;;;;8.82;4.90;;;;;;;;;;4990932;28;20046;-81
2023/09/16 06:28:03;;;;;;;6.15;5.18;;;;;;;;;;5002243;28;20551;-79
2023/09/16 06:30:29;;;;;;;5.60;5.05;;;;;;;;;;4990827;28;20026;-79
2023/09/16 06:32:55;;;;;;;5.03;4.53;;;;;;;;;;4978932;28;20409;-80
2023/09/16 06:35:21;;;;;;;5.03;4.63;;;;;;;;;;4989234;28;20042;-81
2023/09/16 06:37:46;;;;;;;7.57;5.30;;;;;;;;;;4981197;28;20031;-79
2023/09/16 06:40:14;;;;;;;5.22;4.70;;;;;;;;;;4995766;28;20095;-80
2023/09/16 06:42:40;;;;;;;4.85;4.45;;;;;;;;;;4977856;28;20046;-81
2023/09/16 06:45:05;;;;;;;4.70;4.30;;;;;;;;;;4987505;28;20080;-80
2023/09/16 06:47:31;;;;;;;5.43;4.65;;;;;;;;;;4987737;28;20034;-81
2023/09/16 06:49:57;;;;;;;5.22;4.28;;;;;;;;;;4988219;28;20052;-81
2023/09/16 06:52:23;;;;;;;4.75;3.50;;;;;;;;;;4987483;28;20039;-79
2023/09/16 06:54:49;;;;;;;3.92;3.63;;;;;;;;;;4970930;28;20099;-81
2023/09/16 06:57:14;;;;;;;3.47;3.17;;;;;;;;;;4985495;28;20018;-78
2023/09/16 06:59:40;;;;;;;3.70;3.30;;;;;;;;;;4989914;28;20452;-78
2023/09/16 07:02:05;;;;;;;3.05;2.85;;;;;;;;;;4991633;28;20079;-79
2023/09/16 07:04:30;;;;;;;2.78;2.58;;;;;;;;;;4998343;28;20388;-80
2023/09/16 07:06:56;;;;;;;2.80;2.60;;;;;;;;;;4990395;28;20042;-80
2023/09/16 07:09:22;;;;;;;3.03;2.67;;;;;;;;;;4989603;28;20037;-79
2023/09/16 07:11:47;;;;;;;2.85;2.65;;;;;;;;;;4987496;28;20027;-79
2023/09/16 07:14:12;;;;;;;2.50;2.30;;;;;;;;;;4994847;28;20110;-82
2023/09/16 07:16:40;;;;;;;3.05;2.70;;;;;;;;;;4986525;28;20058;-81
2023/09/16 07:19:05;;;;;;;2.78;2.50;;;;;;;;;;4988788;28;20034;-79
2023/09/16 07:21:31;;;;;;;2.50;2.00;;;;;;;;;;4992715;28;20056;-79
2023/09/16 07:24:00;;;;;;;4.32;2.67;;;;;;;;;;4989401;28;20080;-82
2023/09/16 07:26:29;;;;;;;3.78;2.92;;;;;;;;;;4986953;28;20471;-81
2023/09/16 07:28:56;;;;;;;4.18;2.63;;;;;;;;;;4985438;28;20403;-78
2023/09/16 07:31:21;;;;;;;6.13;2.70;;;;;;;;;;4984421;28;20065;-78
2023/09/16 07:33:47;;;;;;;3.45;2.50;;;;;;;;;;4995905;28;20238;-80
2023/09/16 07:36:12;;;;;;;3.17;2.60;;;;;;;;;;4989778;28;20022;-82
2023/09/16 07:38:38;;;;;;;2.88;2.67;;;;;;;;;;4990928;28;20034;-79
2023/09/16 07:41:03;;;;;;;2.70;2.58;;;;;;;;;;4995949;28;20049;-78
2023/09/16 07:43:37;;;;;;;4.22;2.70;;;;;;;;;;4985329;28;20023;-81
2023/09/16 07:46:03;;;;;;;2.75;2.55;;;;;;;;;;4974436;28;20038;-78
2023/09/16 07:48:28;;;;;;;2.60;2.40;;;;;;;;;;4991783;28;20031;-81
2023/09/16 07:50:54;;;;;;;2.40;2.30;;;;;;;;;;4995231;28;20042;-80
2023/09/16 07:53:20;;;;;;;3.75;2.70;;;;;;;;;;4999486;28;20034;-81
2023/09/16 07:55:45;;;;;;;4.53;2.50;;;;;;;;;;4985952;28;20065;-80
2023/09/16 07:58:11;;;;;;;2.65;2.45;;;;;;;;;;4992677;28;20504;-81
2023/09/16 08:00:36;;;;;;;2.47;2.35;;;;;;;;;;4996243;28;20042;-79
2023/09/16 08:03:01;;;;;;;2.80;2.60;;;;;;;;;;4976774;28;20401;-82
2023/09/16 08:05:27;;;;;;;2.70;2.50;;;;;;;;;;4975760;28;20088;-79
2023/09/16 08:07:52;;;;;;;2.83;2.53;;;;;;;;;;4993727;28;20346;-79
2023/09/16 08:10:18;;;;;;;3.55;2.33;;;;;;;;;;4993730;28;20125;-82
2023/09/16 08:12:44;;;;;;;2.58;2.38;;;;;;;;;;4993007;28;20063;-79
2023/09/16 08:15:09;;;;;;;2.88;2.63;;;;;;;;;;4993700;28;20128;-80
2023/09/16 08:17:37;;;;;;;3.58;2.70;;;;;;;;;;5015700;23;20118;-80
2023/09/16 08:20:07;;;;;;;2.58;2.38;;;;;;;;;;4995478;28;20121;-80
2023/09/16 08:22:35;;;;;;;2.80;2.60;;;;;;;;;;4993605;28;20121;-80
2023/09/16 08:25:02;;;;;;;3.42;2.42;;;;;;;;;;4967852;28;20038;-78
2023/09/16 08:27:28;;;;;;;2.50;2.30;;;;;;;;;;4975393;28;20526;-77
2023/09/16 08:29:54;;;;;;;3.85;2.58;;;;;;;;;;4993922;28;20045;-78
2023/09/16 08:32:22;;;;;;;3.85;2.75;;;;;;;;;;4992526;28;20031;-78
2023/09/16 08:34:48;;;;;;;2.80;2.60;;;;;;;;;;4974959;28;20044;-78
2023/09/16 08:37:13;;;;;;;2.60;2.40;;;;;;;;;;4992623;28;20439;-78
2023/09/16 08:39:38;;;;;;;2.65;2.45;;;;;;;;;;4992832;28;20397;-78
2023/09/16 08:42:43;;;;;;;2.50;2.30;;;;;;;;;;4975756;28;20097;-79
2023/09/16 08:45:14;;;;;;;2.30;2.20;;;;;;;;;;4992976;28;20208;-79
2023/09/16 08:47:51;;;;;;;2.58;2.38;;;;;;;;;;4976814;28;20029;-78
2023/09/16 08:50:21;;;;;;;2.83;2.42;;;;;;;;;;4975607;28;20087;-79
2023/09/16 08:52:49;;;;;;;2.53;2.33;;;;;;;;;;4993913;28;20043;-79
2023/09/16 08:55:16;;;;;;;3.75;2.47;;;;;;;;;;4976646;28;20069;-78
2023/09/16 08:57:49;;;;;;;2.50;2.40;;;;;;;;;;4994229;28;20030;-78
2023/09/16 09:00:15;;;;;;;5.00;2.75;;;;;;;;;;4993650;28;20027;-79
2023/09/16 09:02:41;;;;;;;4.20;2.47;;;;;;;;;;4993877;28;20034;-79
2023/09/16 09:05:08;;;;;;;3.50;2.80;;;;;;;;;;4976297;28;20031;-78
2023/09/16 09:07:40;;;;;;;2.70;2.50;;;;;;;;;;4993592;28;20046;-78
2023/09/16 09:10:06;;;;;;;6.72;2.80;;;;;;;;;;4975676;28;20035;-78
2023/09/16 09:12:35;;;;;;;2.60;2.40;;;;;;;;;;4993592;28;20493;-79
2023/09/16 09:15:07;;;;;;;2.47;2.28;;;;;;;;;;4994760;28;20084;-79
2023/09/16 09:17:37;;;;;;;2.65;2.47;;;;;;;;;;4992906;28;20046;-78
2023/09/16 09:20:05;;;;;;;2.78;2.58;;;;;;;;;;4993306;28;20391;-79
2023/09/16 09:22:32;;;;;;;2.95;2.65;;;;;;;;;;4993299;28;20049;-78
2023/09/16 09:24:58;;;;;;;4.03;2.67;;;;;;;;;;4992892;28;20034;-78
2023/09/16 09:27:23;;;;;;;3.10;2.80;;;;;;;;;;4993036;28;20030;-79
2023/09/16 09:29:48;;;;;;;2.80;2.60;;;;;;;;;;4976953;28;20389;-79
2023/09/16 09:32:14;;;;;;;3.85;2.65;;;;;;;;;;4993885;28;20035;-78
2023/09/16 09:34:39;;;;;;;3.65;2.97;;;;;;;;;;4993623;28;20064;-77
2023/09/16 09:37:14;;;;;;;2.88;2.58;;;;;;;;;;4993118;28;20049;-77
2023/09/16 09:39:39;;;;;;;2.80;2.60;;;;;;;;;;4978014;28;20054;-78
2023/09/16 09:42:05;;;;;;;4.40;2.85;;;;;;;;;;4993121;28;20033;-78
2023/09/16 09:44:32;;;;;;;4.20;2.72;;;;;;;;;;4996530;28;20022;-78
2023/09/16 09:46:58;;;;;;;3.08;2.80;;;;;;;;;;4997316;28;20033;-79
2023/09/16 09:49:23;;;;;;;2.70;2.50;;;;;;;;;;4979318;28;20498;-79
2023/09/16 09:51:49;;;;;;;2.65;2.45;;;;;;;;;;4979937;28;20047;-79
2023/09/16 09:54:16;;;;;;;2.47;2.38;;;;;;;;;;4979285;28;20022;-79
2023/09/16 09:56:41;;;;;;;6.45;2.67;;;;;;;;;;4980262;28;20030;-78
2023/09/16 09:59:07;;;;;;;2.92;2.63;;;;;;;;;;4996757;28;20035;-78
2023/09/16 10:01:32;;;;;;;2.65;2.45;;;;;;;;;;4997075;28;20026;-76
2023/09/16 10:04:01;;;;;;;3.30;2.50;;;;;;;;;;4997125;28;20038;-79
2023/09/16 10:06:27;;;;;;;2.70;2.50;;;;;;;;;;4979053;28;20046;-77
2023/09/16 10:08:52;;;;;;;2.70;2.35;;;;;;;;;;4977964;28;20606;-79
2023/09/16 10:11:20;;;;;;;5.78;2.60;;;;;;;;;;4995157;28;20546;-78
2023/09/16 10:13:47;;;;;;;3.13;2.72;;;;;;;;;;4977876;28;20106;-78
2023/09/16 10:16:13;;;;;;;2.63;2.42;;;;;;;;;;4977713;28;20035;-78
2023/09/16 10:18:38;;;;;;;2.78;2.55;;;;;;;;;;4978407;28;20347;-80
2023/09/16 10:21:05;;;;;;;5.43;2.90;;;;;;;;;;4995085;28;20042;-80
2023/09/16 10:23:31;;;;;;;2.53;2.40;;;;;;;;;;4996786;28;20022;-78
2023/09/16 10:25:57;;;;;;;2.70;2.50;;;;;;;;;;4997073;28;20126;-78
2023/09/16 10:28:22;;;;;;;2.30;2.05;;;;;;;;;;4979534;28;20049;-78
2023/09/16 10:30:48;;;;;;;2.10;2.00;;;;;;;;;;4996544;28;20031;-75
2023/09/16 10:33:15;;;;;;;2.28;2.15;;;;;;;;;;4996445;28;20097;-78
2023/09/16 10:35:42;;;;;;;2.38;2.22;;;;;;;;;;4996864;28;20026;-78
2023/09/16 10:38:09;;;;;;;2.20;2.00;;;;;;;;;;4978709;28;20497;-78
2023/09/16 10:40:35;;;;;;;1.77;1.67;;;;;;;;;;4979092;28;20045;-78
2023/09/16 10:43:04;;;;;;;1.98;1.88;;;;;;;;;;4979417;28;20027;-77
2023/09/16 10:45:31;;;;;;;2.67;2.08;;;;;;;;;;4978249;28;20035;-78
2023/09/16 10:47:59;;;;;;;2.33;2.13;;;;;;;;;;4979267;28;20022;-78
2023/09/16 10:50:25;;;;;;;2.22;2.00;;;;;;;;;;4995952;28;20387;-79
2023/09/16 10:53:10;;;;;;;7.45;2.38;;;;;;;;;;4978767;28;20059;-78
2023/09/16 10:55:49;;;;;;;2.00;1.90;;;;;;;;;;4978530;28;20039;-78
2023/09/16 10:58:18;;;;;;;2.00;1.90;;;;;;;;;;4995951;28;20045;-78
2023/09/16 11:00:50;;;;;;;2.03;1.90;;;;;;;;;;4996141;28;20039;-78
2023/09/16 11:03:16;;;;;;;1.88;1.70;;;;;;;;;;4978208;28;20061;-78
2023/09/16 11:05:42;;;;;;;3.22;2.20;;;;;;;;;;4979241;28;20054;-77
2023/09/16 11:08:08;;;;;;;1.70;1.60;;;;;;;;;;4996435;28;20034;-79
2023/09/16 11:10:34;;;;;;;1.88;1.77;;;;;;;;;;4978075;28;20532;-79
2023/09/16 11:13:00;;;;;;;2.05;1.95;;;;;;;;;;4978216;28;20038;-79
2023/09/16 11:15:35;;;;;;;1.77;1.67;;;;;;;;;;4995443;28;20082;-79
2023/09/16 11:18:05;;;;;;;3.40;2.10;;;;;;;;;;4979541;28;20390;-80
2023/09/16 11:20:33;;;;;;;2.15;1.60;;;;;;;;;;4996391;28;20545;-78
2023/09/16 11:23:03;;;;;;;4.65;1.63;;;;;;;;;;4976606;28;20042;-77
2023/09/16 11:25:34;;;;;;;2.83;2.05;;;;;;;;;;4994092;28;20045;-79
2023/09/16 11:28:06;;;;;;;1.60;1.50;;;;;;;;;;4977837;28;20555;-79
2023/09/16 11:30:32;;;;;;;1.40;1.40;;;;;;;;;;4995227;28;20109;-78
2023/09/16 11:32:57;;;;;;;1.75;1.65;;;;;;;;;;4994204;28;20502;-80
2023/09/16 11:35:26;;;;;;;3.00;1.60;;;;;;;;;;4976190;28;20418;-77
2023/09/16 11:37:52;;;;;;;1.92;1.70;;;;;;;;;;4995703;28;20121;-78
2023/09/16 11:40:18;;;;;;;1.70;1.60;;;;;;;;;;4994607;28;20066;-78
2023/09/16 11:42:44;;;;;;;1.58;1.48;;;;;;;;;;4976018;28;20035;-76
2023/09/16 11:45:10;;;;;;;1.83;1.73;;;;;;;;;;4993537;28;20444;-78
2023/09/16 11:47:35;;;;;;;1.73;1.60;;;;;;;;;;4993923;28;20102;-77
2023/09/16 11:50:06;;;;;;;2.22;1.80;;;;;;;;;;4975991;28;20038;-80
2023/09/16 11:52:31;;;;;;;2.65;1.83;;;;;;;;;;4994863;28;20117;-78
2023/09/16 11:54:56;;;;;;;2.13;1.98;;;;;;;;;;4993547;28;20075;-78
2023/09/16 11:57:22;;;;;;;1.90;1.73;;;;;;;;;;4991898;28;20022;-78
2023/09/16 11:59:48;;;;;;;1.90;1.80;;;;;;;;;;4976691;28;20038;-79
2023/09/16 12:02:14;;;;;;;1.90;1.73;;;;;;;;;;4977798;28;20057;-79
2023/09/16 12:04:40;;;;;;;2.00;1.88;;;;;;;;;;4977377;28;20042;-79
2023/09/16 12:07:06;;;;;;;1.90;1.80;;;;;;;;;;4995089;28;20332;-79
2023/09/16 12:09:32;;;;;;;1.80;1.70;;;;;;;;;;4977565;28;20026;-78
2023/09/16 12:11:58;;;;;;;2.35;2.15;;;;;;;;;;4994765;28;20103;-78
2023/09/16 12:14:23;;;;;;;2.28;1.80;;;;;;;;;;4976916;28;20035;-77
2023/09/16 12:16:53;;;;;;;2.25;2.05;;;;;;;;;;4994668;28;20035;-79
2023/09/16 12:19:18;;;;;;;2.20;2.00;;;;;;;;;;4977718;28;20476;-78
2023/09/16 12:21:48;;;;;;;2.00;1.80;;;;;;;;;;4994517;28;20062;-78
2023/09/16 12:24:18;;;;;;;2.20;2.10;;;;;;;;;;4995965;28;20030;-78
2023/09/16 12:26:44;;;;;;;2.20;2.10;;;;;;;;;;4977662;28;20018;-78
2023/09/16 12:29:10;;;;;;;4.60;2.08;;;;;;;;;;4977879;28;20038;-78
2023/09/16 12:31:35;;;;;;;1.90;1.80;;;;;;;;;;4977519;28;20038;-79
2023/09/16 12:34:01;;;;;;;2.10;2.00;;;;;;;;;;4995076;28;20058;-79
2023/09/16 12:36:28;;;;;;;2.08;1.95;;;;;;;;;;4977250;28;20030;-79
2023/09/16 12:38:58;;;;;;;7.53;2.00;;;;;;;;;;4995145;28;20054;-78
2023/09/16 12:41:28;;;;;;;2.10;2.00;;;;;;;;;;4977024;28;20038;-78
2023/09/16 12:43:56;;;;;;;2.05;1.80;;;;;;;;;;4976538;28;20035;-78
2023/09/16 12:46:23;;;;;;;2.10;2.00;;;;;;;;;;4994341;28;20041;-78
2023/09/16 12:48:50;;;;;;;1.90;1.80;;;;;;;;;;4994248;28;20041;-78
2023/09/16 12:51:18;;;;;;;2.42;1.95;;;;;;;;;;4993736;28;20040;-78
2023/09/16 12:53:43;;;;;;;2.00;1.90;;;;;;;;;;4991020;28;20030;-78
2023/09/16 12:56:09;;;;;;;2.08;1.98;;;;;;;;;;4973109;28;20580;-78
2023/09/16 12:58:43;;;;;;;2.22;1.95;;;;;;;;;;4979093;28;20043;-78
2023/09/16 13:01:08;;;;;;;1.98;1.88;;;;;;;;;;4981689;28;20045;-78
2023/09/16 13:03:41;;;;;;;2.05;1.90;;;;;;;;;;4985855;28;20043;-78
2023/09/16 13:06:06;;;;;;;1.98;1.88;;;;;;;;;;4969112;28;20489;-78
2023/09/16 13:08:33;;;;;;;1.90;1.80;;;;;;;;;;4981205;28;20060;-78
2023/09/16 13:10:58;;;;;;;1.90;1.80;;;;;;;;;;5022360;28;20136;-78
2023/09/16 13:13:24;;;;;;;1.80;1.70;;;;;;;;;;4989506;28;20479;-78
2023/09/16 13:15:50;;;;;;;2.20;2.00;;;;;;;;;;4978919;28;20042;-77
2023/09/16 13:18:16;;;;;;;1.90;1.80;;;;;;;;;;4989139;28;20022;-77
2023/09/16 13:20:42;;;;;;;1.90;1.80;;;;;;;;;;4973933;28;20128;-78
2023/09/16 13:23:18;;;;;;;2.38;2.20;;;;;;;;;;4990166;28;20034;-78
2023/09/16 13:25:43;;;;;;;3.28;2.22;;;;;;;;;;5043996;28;20115;-78
2023/09/16 13:28:20;;;;;;;5.40;1.70;;;;;;;;;;5072744;28;20530;-78
2023/09/16 13:30:53;;;;;;;1.90;1.80;;;;;;;;;;5069851;28;20172;-77
2023/09/16 13:33:19;;;;;;;2.00;1.90;;;;;;;;;;5058404;28;20039;-78
2023/09/16 13:35:45;;;;;;;2.05;1.90;;;;;;;;;;4967607;28;20480;-77
2023/09/16 13:38:12;;;;;;;2.60;2.40;;;;;;;;;;4982325;28;20054;-77
2023/09/16 13:40:38;;;;;;;2.65;2.45;;;;;;;;;;4981313;28;20197;-78
2023/09/16 13:43:05;;;;;;;2.28;2.10;;;;;;;;;;4981926;28;20462;-78
2023/09/16 13:45:31;;;;;;;2.13;2.00;;;;;;;;;;4985075;28;20126;-80
2023/09/16 13:48:18;;;;;;;2.40;2.20;;;;;;;;;;4980210;28;20118;-77
2023/09/16 13:50:45;;;;;;;2.60;2.40;;;;;;;;;;4967542;28;20134;-77
2023/09/16 13:53:15;;;;;;;2.13;2.03;;;;;;;;;;4986006;28;20034;-77
2023/09/16 13:55:41;;;;;;;2.45;2.25;;;;;;;;;;4986153;28;20065;-77
2023/09/16 13:58:07;;;;;;;2.50;2.30;;;;;;;;;;4988910;28;20128;-79
2023/09/16 14:00:34;;;;;;;2.50;2.30;;;;;;;;;;4977818;28;20397;-77
2023/09/16 14:03:00;;;;;;;2.30;2.10;;;;;;;;;;4990486;28;20043;-78
2023/09/16 14:05:27;;;;;;;2.17;2.08;;;;;;;;;;4987953;28;20056;-77
2023/09/16 14:07:53;;;;;;;3.47;2.40;;;;;;;;;;5007455;28;20429;-78
2023/09/16 14:10:18;;;;;;;2.38;2.20;;;;;;;;;;4988754;28;20117;-78
2023/09/16 14:12:44;;;;;;;3.17;2.30;;;;;;;;;;4987509;28;20574;-78
2023/09/16 14:15:09;;;;;;;2.42;2.30;;;;;;;;;;4988805;28;20101;-78
2023/09/16 14:17:35;;;;;;;2.33;2.13;;;;;;;;;;4986106;28;20045;-78
2023/09/16 14:20:00;;;;;;;3.83;2.30;;;;;;;;;;4987008;28;20043;-77
2023/09/16 14:22:29;;;;;;;2.53;2.33;;;;;;;;;;4971587;28;20072;-78
2023/09/16 14:24:54;;;;;;;2.42;2.33;;;;;;;;;;4968868;28;20042;-77
2023/09/16 14:27:20;;;;;;;4.28;2.30;;;;;;;;;;4987168;28;20031;-77
2023/09/16 14:29:45;;;;;;;3.28;2.97;;;;;;;;;;4985920;28;20637;-78